TimeMST,TemperatureF,Dew PointF,Humidity,Sea Level PressureIn,VisibilityMPH,Wind Direction,Wind SpeedMPH,Gust SpeedMPH,PrecipitationIn,Events,Conditions,WindDirDegrees,DateUTC
12:53 AM,39.9,37.0,89,29.92,10.0,Calm,Calm,-,0.01,Rain,Light Rain,0,2012-12-01 07:53:00
1:53 AM,39.9,37.0,89,29.91,8.0,SSW,8.1,-,0.01,Rain,Rain,200,2012-12-01 08:53:00
2:53 AM,41.0,36.0,82,29.91,10.0,Calm,Calm,-,0.01,,Clear,0,2012-12-01 09:53:00
3:53 AM,42.1,37.9,85,29.91,10.0,SW,12.7,-,N/A,,Overcast,230,2012-12-01 10:53:00
4:53 AM,45.0,37.0,74,29.91,10.0,SSW,11.5,-,N/A,,Scattered Clouds,200,2012-12-01 11:53:00
5:53 AM,42.1,36.0,79,29.94,10.0,SSW,6.9,-,N/A,,Mostly Cloudy,200,2012-12-01 12:53:00
6:53 AM,44.1,36.0,73,29.93,10.0,South,4.6,-,N/A,,Clear,180,2012-12-01 13:53:00
7:53 AM,46.4,37.4,71,29.94,10.0,South,8.1,-,N/A,,Scattered Clouds,190,2012-12-01 14:53:00
8:53 AM,46.0,39.0,76,29.96,10.0,SW,13.8,-,0.00,Rain,Light Rain,220,2012-12-01 15:53:00
9:53 AM,48.9,39.9,71,29.96,10.0,South,6.9,-,0.00,,Mostly Cloudy,180,2012-12-01 16:53:00
10:53 AM,52.0,39.9,63,29.94,10.0,South,19.6,27.6,N/A,,Mostly Cloudy,180,2012-12-01 17:53:00
11:53 AM,54.0,39.0,57,29.91,10.0,South,18.4,27.6,N/A,,Scattered Clouds,180,2012-12-01 18:53:00
12:53 PM,52.0,37.9,59,29.93,10.0,South,21.9,-,N/A,,Mostly Cloudy,190,2012-12-01 19:53:00
1:42 PM,51.8,35.6,54,29.96,10.0,SW,13.8,-,0.00,,Overcast,230,2012-12-01 20:42:00
1:53 PM,52.0,36.0,54,29.95,10.0,SW,11.5,-,0.00,,Overcast,230,2012-12-01 20:53:00
2:53 PM,51.1,37.0,59,29.92,10.0,SW,8.1,-,0.00,,Mostly Cloudy,220,2012-12-01 21:53:00
3:53 PM,50.0,37.4,62,29.95,10.0,SSW,6.9,-,N/A,,Mostly Cloudy,200,2012-12-01 22:53:00
4:53 PM,48.9,37.0,64,29.92,10.0,South,12.7,-,0.00,,Mostly Cloudy,190,2012-12-01 23:53:00
5:53 PM,45.0,36.0,71,29.93,10.0,South,8.1,-,N/A,,Mostly Cloudy,180,2012-12-02 00:53:00
6:53 PM,48.9,33.1,54,29.89,10.0,SSW,15.0,20.7,N/A,,Scattered Clouds,200,2012-12-02 01:53:00
7:53 PM,50.0,35.1,57,29.88,10.0,South,20.7,-,N/A,,Overcast,190,2012-12-02 02:53:00
8:53 PM,48.0,36.0,63,29.89,10.0,SSE,11.5,-,0.00,,Overcast,150,2012-12-02 03:53:00
9:53 PM,50.0,37.0,61,29.85,10.0,SSE,15.0,18.4,0.00,,Overcast,150,2012-12-02 04:53:00
10:53 PM,50.0,36.0,59,29.80,10.0,South,21.9,28.8,N/A,,Clear,170,2012-12-02 05:53:00
11:53 PM,51.1,36.0,56,29.77,10.0,South,24.2,33.4,N/A,,Mostly Cloudy,170,2012-12-02 06:53:00